Time;durP1;ratioP1;P1;durP2;ratioP2;P2;SDS_P1;SDS_P2;PMS_P1;PMS_P2;Temp;Humidity;BMP_temperature;BMP_pressure;BME280_temperature;BME280_humidity;BME280_pressure;Samples;Min_cycle;Max_cycle;Signal;HPM_P1;HPM_P2
2023/07/30 00:01:47;;;;;;;4.60;3.10;;;;;;;22.47;75.38;99886.13;5042970;28;20245;-59
2023/07/30 00:04:12;;;;;;;3.90;2.40;;;;;;;22.46;75.51;99876.66;5046646;28;20168;-60
2023/07/30 00:06:38;;;;;;;4.23;3.00;;;;;;;22.46;76.16;99876.66;5046557;28;20196;-59
2023/07/30 00:09:03;;;;;;;3.57;2.57;;;;;;;22.46;75.20;99852.81;5043050;28;20183;-59
2023/07/30 00:11:29;;;;;;;5.13;2.63;;;;;;;22.45;75.44;99869.28;5068341;28;20183;-59
2023/07/30 00:13:54;;;;;;;4.57;3.00;;;;;;;22.45;75.52;99872.16;5040355;28;20204;-60
2023/07/30 00:16:20;;;;;;;3.93;2.40;;;;;;;22.46;75.15;99870.06;5028259;28;20188;-59
2023/07/30 00:18:45;;;;;;;4.93;2.50;;;;;;;22.44;75.57;99870.53;5028239;28;20176;-60
2023/07/30 00:21:11;;;;;;;4.50;2.53;;;;;;;22.46;75.42;99870.06;5030595;28;20193;-59
2023/07/30 00:23:36;;;;;;;4.13;2.10;;;;;;;22.45;75.23;99877.06;5039079;28;20179;-59
2023/07/30 00:26:01;;;;;;;4.00;2.77;;;;;;;22.45;74.91;99883.66;5044416;28;20196;-59
2023/07/30 00:28:27;;;;;;;4.73;2.60;;;;;;;22.45;74.78;99880.78;5047343;28;20192;-60
2023/07/30 00:30:52;;;;;;;3.57;2.43;;;;;;;22.45;74.97;99892.28;5043047;28;20191;-60
2023/07/30 00:33:18;;;;;;;5.20;2.30;;;;;;;22.45;74.78;99879.94;5030978;28;20171;-60
2023/07/30 00:35:43;;;;;;;4.63;2.40;;;;;;;22.44;74.90;99887.78;5065410;28;20171;-60
2023/07/30 00:38:09;;;;;;;3.50;1.97;;;;;;;22.44;74.79;99887.78;5045350;28;20897;-59
2023/07/30 00:40:40;;;;;;;3.50;2.20;;;;;;;22.45;75.08;99888.59;5046097;28;20291;-59
2023/07/30 00:43:05;;;;;;;3.07;1.90;;;;;;;22.44;75.02;99887.78;5040750;28;20348;-60
2023/07/30 00:45:31;;;;;;;4.37;2.10;;;;;;;22.45;74.52;99892.28;5045881;28;21081;-60
2023/07/30 00:47:56;;;;;;;3.47;1.87;;;;;;;22.44;74.88;99887.78;5043770;28;20247;-60
2023/07/30 00:50:22;;;;;;;3.10;2.00;;;;;;;22.45;74.56;99885.72;5029605;28;20192;-60
2023/07/30 00:52:48;;;;;;;3.60;2.23;;;;;;;22.44;74.53;99882.03;5028731;28;20279;-59
2023/07/30 00:55:13;;;;;;;3.77;2.60;;;;;;;22.45;74.47;99877.06;5033877;28;20224;-59
2023/07/30 00:57:39;;;;;;;4.10;2.00;;;;;;;22.44;74.41;99882.03;5046270;28;20242;-60
2023/07/30 01:00:35;;;;;;;3.00;2.07;;;;;;;22.45;74.23;99895.16;5045368;28;20195;-59
2023/07/30 01:03:01;;;;;;;4.77;2.17;;;;;;;22.44;74.38;99895.56;5056410;28;20217;-60
2023/07/30 01:05:26;;;;;;;3.40;2.20;;;;;;;22.44;74.35;99899.28;5046381;28;20402;-60
2023/07/30 01:07:52;;;;;;;4.23;1.70;;;;;;;22.44;73.98;99902.16;5045136;28;20176;-59
2023/07/30 01:10:17;;;;;;;6.53;2.10;;;;;;;22.44;74.17;99892.66;5043376;28;20194;-59
2023/07/30 01:12:43;;;;;;;4.40;2.20;;;;;;;22.42;74.31;99884.47;5047927;28;20171;-59
2023/07/30 01:15:08;;;;;;;2.40;1.67;;;;;;;22.43;74.15;99900.47;5068578;28;20229;-60
2023/07/30 01:17:34;;;;;;;4.30;1.90;;;;;;;22.44;74.27;99895.56;5065016;28;20180;-60
2023/07/30 01:19:59;;;;;;;2.17;1.60;;;;;;;22.44;74.11;99895.56;5029730;28;20208;-60
2023/07/30 01:22:24;;;;;;;2.77;1.70;;;;;;;22.44;73.99;99905.03;5029584;28;20184;-59
2023/07/30 01:24:50;;;;;;;4.47;2.53;;;;;;;22.44;73.69;99899.28;5041518;28;20196;-59
2023/07/30 01:27:26;;;;;;;3.87;1.90;;;;;;;22.45;74.08;99898.03;5051208;28;20760;-60
2023/07/30 01:29:54;;;;;;;3.90;2.30;;;;;;;22.43;73.70;99891.84;5047247;28;20175;-59
2023/07/30 01:32:20;;;;;;;2.97;1.80;;;;;;;22.43;73.99;99894.72;5031037;28;20433;-59
2023/07/30 01:34:45;;;;;;;3.20;1.80;;;;;;;22.43;74.00;99897.59;5030774;28;20427;-60
2023/07/30 01:37:12;;;;;;;3.00;1.70;;;;;;;22.43;74.45;99899.66;5028306;28;20426;-59
2023/07/30 01:39:38;;;;;;;3.27;1.70;;;;;;;22.41;74.14;99910.75;5026754;28;20215;-60
2023/07/30 01:42:04;;;;;;;2.90;1.90;;;;;;;22.43;74.28;99911.19;5027542;28;20427;-60
2023/07/30 01:44:29;;;;;;;3.40;2.40;;;;;;;22.41;73.84;99914.47;5027642;28;20782;-60
2023/07/30 01:46:54;;;;;;;3.60;2.17;;;;;;;22.42;74.14;99918.97;5050018;28;20533;-59
2023/07/30 01:49:20;;;;;;;4.27;1.93;;;;;;;22.42;73.82;99916.09;5036413;28;20232;-59
2023/07/30 01:51:46;;;;;;;3.17;2.30;;;;;;;22.41;74.03;99923.09;5029168;28;20180;-59
2023/07/30 01:54:11;;;;;;;4.47;2.20;;;;;;;22.41;74.34;99913.63;5051276;28;20654;-59
2023/07/30 01:56:36;;;;;;;3.30;1.57;;;;;;;22.41;74.31;99922.25;5042974;28;20196;-60
2023/07/30 01:59:02;;;;;;;3.83;1.80;;;;;;;22.40;74.02;99907.06;5041980;28;20208;-60
2023/07/30 02:01:27;;;;;;;2.73;1.70;;;;;;;22.40;74.14;99924.34;5049739;28;20179;-60
2023/07/30 02:03:53;;;;;;;3.60;2.10;;;;;;;22.41;73.66;99910.75;5050682;28;20194;-59
2023/07/30 02:06:18;;;;;;;3.23;2.10;;;;;;;22.42;74.13;99910.34;5039768;28;20199;-60
2023/07/30 02:08:44;;;;;;;3.43;2.10;;;;;;;22.41;73.81;99905.00;5030384;28;20176;-59
2023/07/30 02:11:09;;;;;;;3.20;1.90;;;;;;;22.40;74.00;99895.56;5039751;28;20221;-59
2023/07/30 02:13:35;;;;;;;6.23;2.70;;;;;;;22.40;74.11;99894.75;5058626;28;20709;-59
2023/07/30 02:16:00;;;;;;;3.73;2.00;;;;;;;22.39;73.90;99896.81;5039521;28;20230;-59
2023/07/30 02:18:25;;;;;;;4.40;2.27;;;;;;;22.41;73.65;99899.25;5030505;28;20165;-59
2023/07/30 02:20:54;;;;;;;3.10;1.63;;;;;;;22.39;73.74;99885.31;5039978;28;20219;-60
2023/07/30 02:23:20;;;;;;;3.83;2.20;;;;;;;22.40;73.79;99892.69;5049812;28;20177;-59
2023/07/30 02:25:45;;;;;;;3.50;2.13;;;;;;;22.40;74.17;99904.19;5045328;28;20443;-60
2023/07/30 02:28:11;;;;;;;3.30;2.10;;;;;;;22.38;74.10;99888.59;5050015;28;20441;-58
2023/07/30 02:30:36;;;;;;;4.13;2.10;;;;;;;22.38;74.06;99885.72;5051995;28;20187;-59
2023/07/30 02:33:02;;;;;;;3.43;2.10;;;;;;;22.38;74.24;99882.84;5035614;28;20188;-60
2023/07/30 02:35:27;;;;;;;4.63;2.20;;;;;;;22.38;74.10;99883.63;5035502;28;20187;-59
2023/07/30 02:37:53;;;;;;;3.60;1.73;;;;;;;22.39;73.97;99890.22;5042505;28;20179;-60
2023/07/30 02:40:18;;;;;;;4.03;2.10;;;;;;;22.39;73.86;99882.44;5029595;28;20905;-60
2023/07/30 02:42:44;;;;;;;2.93;2.13;;;;;;;22.39;74.13;99884.47;5027313;28;20271;-59
2023/07/30 02:45:09;;;;;;;4.07;2.00;;;;;;;22.38;73.98;99880.75;5027227;28;20164;-60
2023/07/30 02:47:35;;;;;;;3.30;2.17;;;;;;;22.36;74.00;99886.13;5045595;28;20244;-59
2023/07/30 02:50:01;;;;;;;3.23;2.20;;;;;;;22.37;74.07;99890.63;5048180;28;20211;-60
2023/07/30 02:52:27;;;;;;;3.00;1.90;;;;;;;22.37;73.69;99887.75;5038785;28;20687;-59
2023/07/30 02:54:52;;;;;;;2.50;1.80;;;;;;;22.37;74.60;99898.47;5029588;28;20414;-59
2023/07/30 02:57:17;;;;;;;3.50;2.50;;;;;;;22.37;74.16;99901.34;5029816;28;20705;-59
2023/07/30 02:59:43;;;;;;;3.57;2.17;;;;;;;22.37;73.82;99902.16;5029541;28;20227;-59
2023/07/30 03:02:08;;;;;;;4.50;2.30;;;;;;;22.37;74.13;99905.03;5048828;28;20192;-59
2023/07/30 03:04:34;;;;;;;3.17;2.23;;;;;;;22.39;73.93;99919.00;5049014;28;20156;-58
2023/07/30 03:06:59;;;;;;;4.13;2.23;;;;;;;22.37;73.72;99918.59;5047027;28;20191;-60
2023/07/30 03:09:25;;;;;;;2.40;1.63;;;;;;;22.36;74.48;99923.53;5045571;28;20164;-60
2023/07/30 03:11:50;;;;;;;4.20;2.13;;;;;;;22.38;74.10;99923.13;5049022;28;20208;-59
2023/07/30 03:14:16;;;;;;;4.00;2.30;;;;;;;22.38;74.09;99923.13;5045305;28;20192;-59
2023/07/30 03:16:41;;;;;;;4.40;2.73;;;;;;;22.37;73.81;99925.16;5049146;28;20175;-59
2023/07/30 03:19:07;;;;;;;3.27;1.87;;;;;;;22.38;74.16;99926.00;5042953;28;20212;-59
2023/07/30 03:21:32;;;;;;;3.07;1.80;;;;;;;22.36;74.29;99937.91;5028838;28;20188;-59
2023/07/30 03:23:58;;;;;;;2.97;2.17;;;;;;;22.37;73.77;99928.03;5028679;28;20184;-59
2023/07/30 03:26:23;;;;;;;2.50;1.83;;;;;;;22.37;73.79;99930.09;5038104;28;20188;-60
2023/07/30 03:28:49;;;;;;;3.87;1.83;;;;;;;22.36;74.31;99928.44;5054660;28;20183;-59
2023/07/30 03:31:14;;;;;;;4.23;2.40;;;;;;;22.36;74.24;99929.28;5045720;28;20325;-59
2023/07/30 03:33:43;;;;;;;3.20;1.90;;;;;;;22.36;73.80;99934.19;5035750;28;20192;-60
2023/07/30 03:36:13;;;;;;;3.63;2.30;;;;;;;22.34;73.68;99940.38;5025480;28;20272;-60
2023/07/30 03:38:39;;;;;;;4.00;1.97;;;;;;;22.36;73.89;99949.41;5026321;28;20511;-59
2023/07/30 03:41:05;;;;;;;2.70;2.00;;;;;;;22.35;74.38;99947.78;5044765;28;20433;-60
2023/07/30 03:43:31;;;;;;;4.70;2.23;;;;;;;22.35;73.74;99952.69;5046243;28;20984;-60
2023/07/30 03:45:56;;;;;;;3.33;2.07;;;;;;;22.35;73.67;99946.94;5034695;28;20565;-60
2023/07/30 03:48:22;;;;;;;3.60;2.03;;;;;;;22.35;73.75;99947.78;5027104;28;20437;-60
2023/07/30 03:50:47;;;;;;;3.73;2.33;;;;;;;22.34;73.42;99946.13;5028444;28;20185;-59
2023/07/30 03:53:13;;;;;;;3.57;1.80;;;;;;;22.35;74.20;99946.94;5033510;28;20199;-60
2023/07/30 03:55:39;;;;;;;4.60;2.20;;;;;;;22.35;73.84;99941.19;5028368;28;20164;-59
2023/07/30 03:58:04;;;;;;;3.13;2.20;;;;;;;22.35;74.09;99938.31;5028654;28;20189;-59
2023/07/30 04:00:30;;;;;;;3.03;2.07;;;;;;;22.34;73.95;99943.25;5028774;28;20551;-60
2023/07/30 04:02:55;;;;;;;2.70;2.00;;;;;;;22.33;73.65;99944.47;5066272;28;20244;-59
2023/07/30 04:05:20;;;;;;;2.83;2.00;;;;;;;22.33;73.99;99949.44;5067308;28;20228;-60
2023/07/30 04:07:46;;;;;;;3.83;2.13;;;;;;;22.33;74.12;99955.97;5044751;28;20188;-60
2023/07/30 04:10:11;;;;;;;3.30;1.90;;;;;;;22.34;74.03;99968.31;5042156;28;20192;-60
2023/07/30 04:12:37;;;;;;;3.30;2.40;;;;;;;22.34;74.06;99972.03;5043566;28;20700;-60
2023/07/30 04:15:02;;;;;;;4.23;1.93;;;;;;;22.34;73.79;99962.56;5045148;28;20263;-59
2023/07/30 04:17:28;;;;;;;4.13;2.53;;;;;;;22.33;73.86;99966.69;5047029;28;20249;-60
2023/07/30 04:19:53;;;;;;;3.60;1.70;;;;;;;22.33;73.92;99972.44;5046470;28;20208;-59
2023/07/30 04:22:19;;;;;;;3.77;2.30;;;;;;;22.34;73.73;99974.06;5040756;28;20199;-59
2023/07/30 04:24:44;;;;;;;2.90;2.03;;;;;;;22.32;74.03;99977.34;5026565;28;20176;-60
2023/07/30 04:27:09;;;;;;;2.93;1.87;;;;;;;22.33;73.80;99967.47;5024139;28;20169;-60
2023/07/30 04:29:35;;;;;;;3.90;1.87;;;;;;;22.33;73.99;99972.44;5024994;28;20188;-59
2023/07/30 04:32:00;;;;;;;3.33;2.00;;;;;;;22.32;73.70;99970.81;5025180;28;20187;-59
2023/07/30 04:34:26;;;;;;;2.90;2.10;;;;;;;22.32;73.50;99971.59;5041004;28;20656;-59
2023/07/30 04:36:51;;;;;;;2.80;2.10;;;;;;;22.32;73.58;99965.84;5041207;28;20838;-59
2023/07/30 04:39:17;;;;;;;3.53;2.03;;;;;;;22.32;74.10;99974.47;5026696;28;20659;-59
2023/07/30 04:41:42;;;;;;;3.53;2.10;;;;;;;22.33;73.79;99973.25;5026921;28;20180;-60
2023/07/30 04:44:08;;;;;;;3.20;2.00;;;;;;;22.33;73.58;99978.19;5040387;28;20702;-59
2023/07/30 04:46:33;;;;;;;3.20;2.10;;;;;;;22.33;73.84;99975.31;5050117;28;20180;-59
2023/07/30 04:49:01;;;;;;;3.00;2.00;;;;;;;22.32;73.54;99988.84;5048135;28;20227;-59
2023/07/30 04:51:26;;;;;;;3.90;2.10;;;;;;;22.33;73.79;99984.75;5049320;28;20533;-59
2023/07/30 04:53:52;;;;;;;3.30;2.10;;;;;;;22.33;74.03;99978.19;5049359;28;20449;-59
2023/07/30 04:56:17;;;;;;;3.47;2.00;;;;;;;22.33;73.79;99983.94;5051302;28;20176;-60
2023/07/30 04:58:43;;;;;;;3.00;1.83;;;;;;;22.32;73.61;99977.34;5040946;28;20188;-59
2023/07/30 05:01:08;;;;;;;3.40;2.10;;;;;;;22.32;74.08;99977.34;5021574;28;20183;-60
2023/07/30 05:03:34;;;;;;;3.33;2.03;;;;;;;22.33;nan;99987.63;5051306;28;20179;-59
2023/07/30 05:05:59;;;;;;;2.70;1.70;;;;;;;22.32;73.79;99988.84;5051524;28;20160;-60
2023/07/30 05:08:24;;;;;;;3.07;1.97;;;;;;;22.34;73.85;99997.91;5036372;28;20586;-60
2023/07/30 05:10:50;;;;;;;3.20;2.10;;;;;;;22.35;73.85;100002.44;5051162;28;20180;-60
2023/07/30 05:13:15;;;;;;;3.63;1.70;;;;;;;22.34;73.76;100008.59;5049672;28;20188;-59
2023/07/30 05:15:41;;;;;;;4.93;2.13;;;;;;;22.33;73.86;100002.00;5050105;28;20179;-59
2023/07/30 05:18:07;;;;;;;2.63;2.10;;;;;;;22.33;73.64;99993.38;5050531;28;20187;-59
2023/07/30 05:20:32;;;;;;;3.00;2.20;;;;;;;22.32;73.51;99985.97;5050175;28;20192;-59
2023/07/30 05:22:58;;;;;;;3.00;1.90;;;;;;;22.33;73.66;99998.31;5045288;28;20191;-60
2023/07/30 05:25:23;;;;;;;2.80;1.70;;;;;;;22.33;74.18;99993.38;5049674;28;20180;-60
2023/07/30 05:27:48;;;;;;;3.47;2.07;;;;;;;22.32;73.87;99982.31;5047669;28;20180;-60
2023/07/30 05:30:14;;;;;;;3.93;1.83;;;;;;;22.32;73.84;99988.84;5031084;28;20184;-60
2023/07/30 05:32:39;;;;;;;3.10;1.97;;;;;;;22.32;74.01;99993.81;5027858;28;20191;-59
2023/07/30 05:35:05;;;;;;;3.30;2.00;;;;;;;22.32;73.66;99997.50;5031839;28;20195;-60
2023/07/30 05:37:31;;;;;;;4.93;2.37;;;;;;;22.32;74.19;99994.63;5030028;28;20184;-60
2023/07/30 05:39:56;;;;;;;3.60;1.90;;;;;;;22.32;73.51;99991.75;5028339;28;20463;-59
2023/07/30 05:42:22;;;;;;;3.53;2.00;;;;;;;22.32;74.17;100000.38;5012336;28;20184;-59
2023/07/30 05:44:47;;;;;;;3.67;2.27;;;;;;;22.31;73.74;100004.47;5033045;28;20199;-60
2023/07/30 05:47:13;;;;;;;3.47;2.20;;;;;;;22.32;73.66;100005.31;5029865;28;20200;-59
2023/07/30 05:49:38;;;;;;;4.03;2.07;;;;;;;22.32;73.76;100000.38;5039230;28;20285;-59
2023/07/30 05:52:04;;;;;;;4.20;1.87;;;;;;;22.31;74.06;100010.22;5046502;28;20195;-60
2023/07/30 05:54:29;;;;;;;3.57;2.13;;;;;;;22.31;73.96;100013.13;5033695;28;20186;-59
2023/07/30 05:56:55;;;;;;;2.70;1.97;;;;;;;22.32;74.04;100011.88;5049953;28;20183;-59
2023/07/30 05:59:20;;;;;;;3.60;2.27;;;;;;;22.31;74.13;100020.91;5047832;28;21169;-59
2023/07/30 06:01:46;;;;;;;4.53;2.00;;;;;;;22.30;74.24;100014.34;5040428;28;20192;-60
2023/07/30 06:04:11;;;;;;;2.97;2.07;;;;;;;22.31;73.81;100021.75;5028678;28;20184;-59
2023/07/30 06:06:37;;;;;;;3.90;2.37;;;;;;;22.31;73.91;100035.28;5030531;28;20251;-59
2023/07/30 06:09:02;;;;;;;4.67;2.50;;;;;;;22.30;74.17;100031.59;5032232;28;20191;-59
2023/07/30 06:11:28;;;;;;;3.50;2.07;;;;;;;22.32;74.05;100034.88;5057703;28;20198;-59
2023/07/30 06:13:54;;;;;;;5.20;2.50;;;;;;;22.31;74.06;100033.25;5063897;28;20187;-60
2023/07/30 06:16:20;;;;;;;3.10;2.37;;;;;;;22.31;74.29;100039.00;5051772;28;20192;-60
2023/07/30 06:18:46;;;;;;;4.80;2.37;;;;;;;22.31;73.88;100038.16;5047668;28;20263;-59
2023/07/30 06:21:11;;;;;;;4.60;2.43;;;;;;;22.31;74.11;100041.88;5042923;28;20446;-60
2023/07/30 06:23:37;;;;;;;4.30;2.70;;;;;;;22.31;74.20;100056.25;5045352;28;20184;-60
2023/07/30 06:26:02;;;;;;;3.80;2.70;;;;;;;22.31;74.46;100049.66;5047680;28;20218;-60
2023/07/30 06:28:28;;;;;;;3.90;2.10;;;;;;;22.31;74.11;100055.41;5037526;28;20237;-60
2023/07/30 06:30:53;;;;;;;3.47;2.20;;;;;;;22.30;74.28;100051.75;5040960;28;20196;-60
2023/07/30 06:33:18;;;;;;;3.63;1.77;;;;;;;22.31;74.83;100056.25;5042479;28;20267;-60
2023/07/30 06:35:44;;;;;;;4.03;2.40;;;;;;;22.31;74.49;100062.00;5028913;28;20172;-59
2023/07/30 06:38:09;;;;;;;4.00;2.20;;;;;;;22.31;74.29;100066.94;5029354;28;20181;-60
2023/07/30 06:40:35;;;;;;;5.50;2.57;;;;;;;22.31;74.07;100064.88;5041779;28;20208;-61
2023/07/30 06:43:00;;;;;;;3.40;2.33;;;;;;;22.32;73.96;100068.59;5045321;28;20195;-60
2023/07/30 06:45:26;;;;;;;4.43;2.10;;;;;;;22.32;74.50;100074.34;5062521;28;20552;-60
2023/07/30 06:47:51;;;;;;;5.50;2.60;;;;;;;22.31;74.18;100070.63;5028377;28;20249;-60
2023/07/30 06:50:17;;;;;;;4.43;2.43;;;;;;;22.32;74.42;100075.16;5028047;28;20310;-59
2023/07/30 06:52:42;;;;;;;7.03;2.83;;;;;;;22.32;74.43;100060.78;5031774;28;20268;-59
2023/07/30 06:55:08;;;;;;;4.43;2.63;;;;;;;22.32;74.17;100082.97;5037923;28;20176;-61
2023/07/30 06:57:33;;;;;;;4.67;3.00;;;;;;;22.32;74.06;100082.97;5047797;28;20932;-61
2023/07/30 07:00:00;;;;;;;4.60;3.10;;;;;;;22.32;73.72;100080.09;5037423;28;20216;-59
2023/07/30 07:02:25;;;;;;;4.97;2.80;;;;;;;22.33;73.97;100090.38;5045615;28;20242;-60
2023/07/30 07:04:51;;;;;;;6.07;2.90;;;;;;;22.32;74.04;100083.78;5045659;28;20434;-60
2023/07/30 07:07:16;;;;;;;4.93;2.63;;;;;;;22.32;74.13;100089.53;5029058;28;20187;-60
2023/07/30 07:09:42;;;;;;;3.97;2.30;;;;;;;22.32;74.35;100094.47;5029072;28;20561;-60
2023/07/30 07:12:07;;;;;;;4.53;2.47;;;;;;;22.31;74.44;100093.66;5027400;28;20570;-60
2023/07/30 07:14:33;;;;;;;3.70;2.80;;;;;;;22.32;74.38;100109.66;5029714;28;20223;-61
2023/07/30 07:16:58;;;;;;;3.57;2.10;;;;;;;22.32;74.70;100115.41;5028406;28;20165;-61
2023/07/30 07:19:24;;;;;;;4.60;2.60;;;;;;;22.32;74.29;100108.88;5014436;28;20200;-60
2023/07/30 07:21:49;;;;;;;4.57;2.70;;;;;;;22.32;74.53;100103.91;5028532;28;20181;-61
2023/07/30 07:24:16;;;;;;;4.37;2.60;;;;;;;22.32;74.39;100109.66;5026649;28;20939;-60
2023/07/30 07:26:41;;;;;;;6.57;2.80;;;;;;;22.33;75.00;100104.75;5027660;28;20226;-60
2023/07/30 07:29:07;;;;;;;5.73;2.47;;;;;;;22.33;74.86;100101.88;5036126;28;20449;-60
2023/07/30 07:31:32;;;;;;;7.70;3.00;;;;;;;22.32;74.42;100091.59;5027837;28;20184;-59
2023/07/30 07:33:57;;;;;;;8.10;3.77;;;;;;;22.33;74.47;100102.69;5028537;28;20179;-61
2023/07/30 07:36:23;;;;;;;5.90;2.90;;;;;;;22.33;74.74;100099.00;5043830;28;20265;-60
2023/07/30 07:38:48;;;;;;;5.63;3.30;;;;;;;22.32;74.73;100091.59;5048434;28;20527;-61
2023/07/30 07:41:17;;;;;;;3.60;2.53;;;;;;;22.32;74.69;100114.63;5045050;28;20268;-59
2023/07/30 07:43:43;;;;;;;5.07;3.13;;;;;;;22.32;75.16;100115.41;5045918;28;20261;-60
2023/07/30 07:46:13;;;;;;;6.17;3.00;;;;;;;22.34;74.69;100120.78;5048036;28;20465;-60
2023/07/30 07:48:40;;;;;;;4.10;2.67;;;;;;;22.33;74.95;100111.31;5045412;28;20466;-59
2023/07/30 07:51:06;;;;;;;4.47;2.43;;;;;;;22.33;74.84;100119.94;5047986;28;20407;-59
2023/07/30 07:53:31;;;;;;;5.73;3.00;;;;;;;22.33;74.58;100119.94;5069536;28;20912;-59
2023/07/30 07:55:56;;;;;;;5.13;3.07;;;;;;;22.34;75.02;100117.91;5051117;28;20746;-59
2023/07/30 07:58:22;;;;;;;6.63;2.90;;;;;;;22.33;74.67;100117.06;5034911;28;20180;-60
2023/07/30 08:00:47;;;;;;;5.87;3.33;;;;;;;22.33;75.08;100125.69;5045125;28;20207;-60
2023/07/30 08:03:13;;;;;;;4.13;2.67;;;;;;;22.34;75.25;100123.66;5027218;28;20168;-60
2023/07/30 08:05:38;;;;;;;5.57;2.87;;;;;;;22.33;74.93;100128.56;5027137;28;20164;-61
2023/07/30 08:08:04;;;;;;;6.53;3.40;;;;;;;22.33;75.16;100119.94;5027571;28;20180;-61
2023/07/30 08:10:29;;;;;;;5.80;2.87;;;;;;;22.34;74.81;100130.22;5034974;28;20179;-60
2023/07/30 08:12:54;;;;;;;4.70;2.67;;;;;;;22.34;74.77;100120.78;5055843;28;20180;-60
2023/07/30 08:15:20;;;;;;;5.40;2.80;;;;;;;22.33;75.01;100122.81;5045899;28;20183;-60
2023/07/30 08:17:46;;;;;;;3.70;2.50;;;;;;;22.33;74.56;100122.81;5046058;28;20171;-61
2023/07/30 08:20:11;;;;;;;4.20;2.77;;;;;;;22.33;74.81;100131.44;5041670;28;20210;-60
2023/07/30 08:22:37;;;;;;;3.40;2.50;;;;;;;22.34;74.84;100133.09;5045062;28;20191;-59
2023/07/30 08:25:03;;;;;;;5.30;2.70;;;;;;;22.35;74.86;100137.63;5049447;28;20183;-59
2023/07/30 08:27:28;;;;;;;3.93;2.40;;;;;;;22.34;75.05;100133.09;5049811;28;20646;-61
2023/07/30 08:29:54;;;;;;;4.13;2.60;;;;;;;22.33;75.03;100137.19;5035933;28;20447;-59
2023/07/30 08:32:19;;;;;;;3.70;2.70;;;;;;;22.34;74.79;100141.75;5065275;28;20179;-59
2023/07/30 08:34:44;;;;;;;3.87;2.70;;;;;;;22.34;74.95;100136.00;5054844;28;20188;-60
2023/07/30 08:37:10;;;;;;;4.27;2.60;;;;;;;22.35;74.66;100125.28;5051300;28;20176;-60
2023/07/30 08:39:35;;;;;;;3.43;2.30;;;;;;;22.34;74.73;100133.09;5045719;28;20216;-60
2023/07/30 08:42:01;;;;;;;4.50;2.47;;;;;;;22.34;74.28;100129.41;5031402;28;20172;-59
2023/07/30 08:44:26;;;;;;;4.30;2.60;;;;;;;22.33;74.18;100137.19;5044262;28;20188;-59
2023/07/30 08:46:52;;;;;;;6.50;2.80;;;;;;;22.33;74.24;100134.31;5030990;28;20544;-60
2023/07/30 08:49:17;;;;;;;3.90;2.47;;;;;;;22.33;74.17;100140.06;5050203;28;20224;-60
2023/07/30 08:51:43;;;;;;;3.90;2.10;;;;;;;22.32;73.86;100144.19;5047778;28;20211;-60
2023/07/30 08:54:09;;;;;;;4.67;2.40;;;;;;;22.32;73.81;100140.50;5051406;28;20176;-60
2023/07/30 08:56:35;;;;;;;4.27;2.43;;;;;;;22.33;73.53;100140.06;5049640;28;20212;-60
2023/07/30 08:59:01;;;;;;;4.50;3.07;;;;;;;22.33;73.36;100145.81;5041065;28;20430;-60
2023/07/30 09:01:31;;;;;;;4.50;2.43;;;;;;;22.32;72.86;100141.31;5051419;28;20164;-60
2023/07/30 09:03:58;;;;;;;6.00;2.60;;;;;;;22.32;72.86;100149.94;5038181;28;20192;-60
2023/07/30 09:06:24;;;;;;;5.90;2.13;;;;;;;22.32;72.55;100149.13;5029614;28;20422;-60
2023/07/30 09:08:49;;;;;;;5.63;2.70;;;;;;;22.32;72.29;100143.38;5044935;28;20449;-60
2023/07/30 09:11:15;;;;;;;4.97;2.50;;;;;;;22.32;72.39;100163.50;5063180;28;20198;-59
2023/07/30 09:13:41;;;;;;;4.67;2.40;;;;;;;22.31;72.11;100159.81;5050724;28;20183;-61
2023/07/30 09:16:11;;;;;;;4.83;2.37;;;;;;;22.31;72.44;100161.84;5063114;28;20184;-60
2023/07/30 09:18:46;;;;;;;4.00;2.50;;;;;;;22.30;71.55;100160.22;5050586;28;20444;-60
2023/07/30 09:21:12;;;;;;;4.60;2.33;;;;;;;22.30;71.09;100158.16;5050116;28;20454;-60
2023/07/30 09:23:42;;;;;;;5.00;3.07;;;;;;;22.32;71.32;100154.88;5040602;28;20443;-60
2023/07/30 09:26:07;;;;;;;5.00;2.40;;;;;;;22.32;71.45;100154.88;5028753;28;20465;-60
2023/07/30 09:28:32;;;;;;;4.17;2.70;;;;;;;22.31;71.35;100156.94;5035266;28;20450;-60
2023/07/30 09:31:06;;;;;;;3.80;2.07;;;;;;;22.31;71.18;100165.56;5049501;28;20225;-60
2023/07/30 09:33:32;;;;;;;5.10;2.70;;;;;;;22.30;71.30;100186.94;5040322;28;20184;-60
2023/07/30 09:36:01;;;;;;;4.33;2.20;;;;;;;22.29;71.12;100176.66;5031729;28;20438;-60
2023/07/30 09:38:28;;;;;;;3.97;2.60;;;;;;;22.28;70.00;100175.00;5031282;28;20450;-60
2023/07/30 09:41:02;;;;;;;3.47;2.20;;;;;;;22.28;69.74;100169.25;5046448;28;20473;-59
2023/07/30 09:43:30;;;;;;;7.07;2.83;;;;;;;22.27;70.12;100170.47;5029703;28;20422;-60
2023/07/30 09:45:55;;;;;;;4.10;2.50;;;;;;;22.26;69.40;100174.59;5030627;28;20447;-60
2023/07/30 09:48:20;;;;;;;4.40;2.30;;;;;;;22.26;69.33;100183.22;5029867;28;20484;-61
2023/07/30 09:50:46;;;;;;;3.97;2.30;;;;;;;22.26;69.43;100180.34;5035016;28;20184;-59
2023/07/30 09:53:11;;;;;;;5.40;2.70;;;;;;;22.26;68.93;100186.09;5029432;28;20214;-59
2023/07/30 09:55:37;;;;;;;5.80;2.67;;;;;;;22.26;68.01;100200.47;5040838;28;20188;-60
2023/07/30 09:58:02;;;;;;;4.00;2.23;;;;;;;22.27;68.08;100201.31;5032487;28;20188;-60
2023/07/30 10:00:29;;;;;;;7.57;2.27;;;;;;;22.25;68.84;100213.22;5066023;28;20203;-61
2023/07/30 10:02:55;;;;;;;4.53;2.80;;;;;;;22.25;68.72;100213.22;5045665;28;20250;-60
2023/07/30 10:05:20;;;;;;;6.70;2.43;;;;;;;22.24;68.48;100223.09;5038027;28;20426;-60
2023/07/30 10:08:21;;;;;;;3.73;2.30;;;;;;;22.25;68.10;100218.97;5043813;28;20191;-60
2023/07/30 10:10:47;;;;;;;5.20;2.50;;;;;;;22.24;68.30;100214.47;5019447;28;20211;-60
2023/07/30 10:13:12;;;;;;;6.43;2.27;;;;;;;22.24;68.17;100223.09;5027998;28;20423;-60
2023/07/30 10:15:38;;;;;;;4.70;2.87;;;;;;;22.25;68.00;100218.13;5047155;28;20191;-60
2023/07/30 10:18:03;;;;;;;4.37;2.30;;;;;;;22.25;67.75;100227.59;5061410;28;20188;-61
2023/07/30 10:20:30;;;;;;;5.30;2.30;;;;;;;22.24;67.70;100234.59;5043221;28;20303;-60
2023/07/30 10:22:57;;;;;;;4.43;2.30;;;;;;;22.24;68.33;100230.88;5028189;28;20702;-60
2023/07/30 10:25:41;;;;;;;3.63;2.00;;;;;;;22.24;67.85;100228.00;5026784;28;20403;-61
2023/07/30 10:28:07;;;;;;;3.83;2.17;;;;;;;22.23;68.57;100227.16;5032810;28;20429;-60
2023/07/30 10:30:33;;;;;;;3.73;2.30;;;;;;;22.25;67.97;100224.72;5046525;28;20435;-60
2023/07/30 10:33:02;;;;;;;3.90;1.97;;;;;;;22.25;68.29;100226.75;5036304;28;20278;-59
2023/07/30 10:35:41;;;;;;;5.10;2.50;;;;;;;22.25;68.37;100239.09;5028364;28;20923;-59
2023/07/30 10:38:36;;;;;;;5.80;1.77;;;;;;;22.26;68.07;100232.13;5035478;28;20912;-61
2023/07/30 10:41:04;;;;;;;2.90;1.93;;;;;;;22.24;68.01;100228.84;5030813;28;20483;-60
2023/07/30 10:43:43;;;;;;;2.93;1.80;;;;;;;22.25;67.99;100233.34;5029573;28;21195;-59
2023/07/30 10:46:10;;;;;;;4.07;1.90;;;;;;;22.26;67.75;100222.66;5040263;28;20528;-60
2023/07/30 10:48:36;;;;;;;8.50;2.30;;;;;;;22.27;67.63;100232.94;5034102;28;21013;-60
2023/07/30 10:51:04;;;;;;;3.17;1.90;;;;;;;22.27;68.13;100232.94;5028576;28;20527;-60
2023/07/30 10:53:30;;;;;;;4.50;1.90;;;;;;;22.26;68.08;100240.75;5038558;28;20451;-60
2023/07/30 10:55:59;;;;;;;3.57;2.00;;;;;;;22.27;67.63;100238.69;5036286;28;20549;-61
2023/07/30 10:58:26;;;;;;;4.63;2.20;;;;;;;22.28;67.51;100238.28;5027735;28;20216;-60
2023/07/30 11:00:51;;;;;;;3.90;2.37;;;;;;;22.29;67.15;100245.69;5041301;28;20983;-61
2023/07/30 11:03:16;;;;;;;3.37;1.70;;;;;;;22.29;67.27;100241.97;5033611;28;20438;-60
2023/07/30 11:05:42;;;;;;;4.23;2.03;;;;;;;22.30;67.29;100244.47;5026981;28;20241;-61
2023/07/30 11:08:07;;;;;;;3.93;1.93;;;;;;;22.29;67.18;100248.56;5037905;28;20274;-60
2023/07/30 11:10:41;;;;;;;3.97;1.90;;;;;;;22.29;67.46;100239.09;5032304;28;20184;-59
2023/07/30 11:13:07;;;;;;;2.73;2.10;;;;;;;22.29;67.35;100247.75;5044598;28;20218;-60
2023/07/30 11:15:32;;;;;;;3.33;1.70;;;;;;;22.29;66.86;100244.84;5038098;28;20438;-61
2023/07/30 11:17:58;;;;;;;3.60;1.83;;;;;;;22.29;67.50;100241.97;5031145;28;20185;-60
2023/07/30 11:20:26;;;;;;;4.33;2.07;;;;;;;22.28;67.15;100235.41;5028591;28;20299;-59
2023/07/30 11:22:52;;;;;;;3.97;1.70;;;;;;;22.29;67.60;100248.56;5037928;28;20532;-59
2023/07/30 11:25:18;;;;;;;7.23;2.40;;;;;;;22.27;67.01;100251.00;5029651;28;20468;-60